Time;durP1;ratioP1;P1;durP2;ratioP2;P2;SDS_P1;SDS_P2;PMS_P1;PMS_P2;Temp;Humidity;BMP_temperature;BMP_pressure;BME280_temperature;BME280_humidity;BME280_pressure;Samples;Min_cycle;Max_cycle;Signal;HPM_P1;HPM_P2
2022/05/20 00:01:08;;;;;;;22.50;12.60;;;;;;;;;;5014687;28;20050;-70
2022/05/20 00:03:36;;;;;;;40.35;23.63;;;;;;;;;;5014756;28;20054;-70
2022/05/20 00:06:03;;;;;;;28.73;17.98;;;;;;;;;;5014756;28;20496;-70
2022/05/20 00:08:30;;;;;;;16.45;10.57;;;;;;;;;;5014637;28;20056;-70
2022/05/20 00:10:57;;;;;;;12.27;9.02;;;;;;;;;;5014219;28;20046;-70
2022/05/20 00:13:25;;;;;;;10.57;8.63;;;;;;;;;;5014297;28;20148;-70
2022/05/20 00:15:53;;;;;;;12.05;9.00;;;;;;;;;;5014778;28;20057;-70
2022/05/20 00:18:20;;;;;;;15.15;9.48;;;;;;;;;;5014182;28;20069;-70
2022/05/20 00:20:47;;;;;;;11.95;9.55;;;;;;;;;;5014364;28;20056;-70
2022/05/20 00:23:13;;;;;;;12.50;8.70;;;;;;;;;;5014269;28;20056;-70
2022/05/20 00:25:46;;;;;;;12.95;9.15;;;;;;;;;;5014314;28;20054;-70
2022/05/20 00:28:20;;;;;;;12.00;8.32;;;;;;;;;;5014043;28;20088;-70
2022/05/20 00:30:49;;;;;;;9.77;7.95;;;;;;;;;;5013964;28;20497;-70
2022/05/20 00:33:16;;;;;;;10.10;8.32;;;;;;;;;;5014035;28;20554;-69
2022/05/20 00:35:43;;;;;;;12.65;7.95;;;;;;;;;;5014104;28;20053;-70
2022/05/20 00:38:09;;;;;;;10.43;7.90;;;;;;;;;;5014047;28;20057;-69
2022/05/20 00:40:36;;;;;;;9.88;7.72;;;;;;;;;;5013790;28;20058;-70
2022/05/20 00:43:12;;;;;;;12.40;8.30;;;;;;;;;;5014083;28;20128;-70
2022/05/20 00:45:40;;;;;;;9.25;8.23;;;;;;;;;;5013843;28;20050;-69
2022/05/20 00:48:07;;;;;;;10.02;8.23;;;;;;;;;;5015980;28;20474;-69
2022/05/20 00:50:35;;;;;;;9.40;7.40;;;;;;;;;;5013790;28;20049;-69
2022/05/20 00:53:01;;;;;;;13.00;8.07;;;;;;;;;;5012297;28;20041;-69
2022/05/20 00:55:28;;;;;;;11.38;7.95;;;;;;;;;;5012424;28;20050;-69
2022/05/20 00:58:09;;;;;;;11.70;8.25;;;;;;;;;;5012555;28;20080;-71
2022/05/20 01:00:40;;;;;;;10.32;7.25;;;;;;;;;;5012436;28;20089;-69
2022/05/20 01:03:08;;;;;;;13.02;9.07;;;;;;;;;;5011998;28;20050;-69
2022/05/20 01:05:41;;;;;;;9.40;7.85;;;;;;;;;;5012473;28;20045;-69
2022/05/20 01:08:08;;;;;;;14.55;8.73;;;;;;;;;;5013294;28;20050;-69
2022/05/20 01:10:35;;;;;;;10.77;7.80;;;;;;;;;;5012413;28;20050;-69
2022/05/20 01:13:02;;;;;;;11.48;8.48;;;;;;;;;;5013107;28;20042;-71
2022/05/20 01:15:29;;;;;;;12.43;8.55;;;;;;;;;;5013209;28;20057;-70
2022/05/20 01:17:55;;;;;;;11.68;8.95;;;;;;;;;;5013145;28;20501;-70
2022/05/20 01:20:25;;;;;;;12.63;8.43;;;;;;;;;;4989308;28;20054;-69
2022/05/20 01:23:06;;;;;;;10.93;8.30;;;;;;;;;;4988057;28;20437;-70
2022/05/20 01:25:33;;;;;;;12.70;8.70;;;;;;;;;;4989975;28;20062;-69
2022/05/20 01:28:00;;;;;;;16.30;10.10;;;;;;;;;;4992826;28;20050;-70
2022/05/20 01:30:28;;;;;;;14.13;10.07;;;;;;;;;;5012633;28;20331;-70
2022/05/20 01:32:55;;;;;;;19.90;10.02;;;;;;;;;;5012615;28;20046;-70
2022/05/20 01:35:39;;;;;;;14.32;9.95;;;;;;;;;;5013552;28;20408;-69
2022/05/20 01:38:07;;;;;;;12.77;9.63;;;;;;;;;;4997514;28;20053;-70
2022/05/20 01:40:59;;;;;;;15.00;10.02;;;;;;;;;;5013131;28;20053;-70
2022/05/20 01:43:47;;;;;;;16.90;9.98;;;;;;;;;;4995824;28;20424;-70
2022/05/20 01:46:48;;;;;;;15.77;11.43;;;;;;;;;;5012920;28;20464;-70
2022/05/20 01:49:26;;;;;;;16.13;12.55;;;;;;;;;;5012491;28;20049;-70
2022/05/20 01:52:18;;;;;;;17.42;12.45;;;;;;;;;;5011474;28;20057;-70
2022/05/20 01:54:59;;;;;;;18.45;12.85;;;;;;;;;;5011664;28;20107;-70
2022/05/20 01:57:30;;;;;;;16.23;12.57;;;;;;;;;;4995004;28;20053;-70
2022/05/20 02:00:14;;;;;;;18.25;12.88;;;;;;;;;;5011548;28;20471;-70
2022/05/20 02:02:57;;;;;;;21.38;13.98;;;;;;;;;;4996640;28;20061;-70
2022/05/20 02:05:33;;;;;;;18.08;12.27;;;;;;;;;;5012672;28;20060;-70
2022/05/20 02:08:08;;;;;;;14.10;11.95;;;;;;;;;;5012391;28;20103;-69
2022/05/20 02:10:40;;;;;;;14.15;11.30;;;;;;;;;;4979782;28;20054;-70
2022/05/20 02:13:08;;;;;;;12.77;10.73;;;;;;;;;;4995006;28;20053;-70
2022/05/20 02:15:47;;;;;;;15.68;11.57;;;;;;;;;;4994465;28;20497;-70
2022/05/20 02:18:18;;;;;;;15.68;11.43;;;;;;;;;;5012442;28;20464;-70
2022/05/20 02:20:49;;;;;;;16.60;11.15;;;;;;;;;;4994853;28;20054;-70
2022/05/20 02:23:31;;;;;;;16.02;11.48;;;;;;;;;;5011147;28;20474;-71
2022/05/20 02:26:02;;;;;;;14.82;10.93;;;;;;;;;;5011226;28;20053;-69
2022/05/20 02:28:37;;;;;;;16.08;12.43;;;;;;;;;;5011036;28;20050;-70
2022/05/20 02:31:05;;;;;;;18.65;11.60;;;;;;;;;;5010754;28;20061;-70
2022/05/20 02:33:32;;;;;;;20.75;13.07;;;;;;;;;;5010955;28;20128;-69
2022/05/20 02:36:07;;;;;;;18.98;11.43;;;;;;;;;;5011202;28;20060;-70
2022/05/20 02:38:35;;;;;;;15.85;11.43;;;;;;;;;;5010844;28;20472;-70
2022/05/20 02:41:02;;;;;;;17.00;10.93;;;;;;;;;;5011813;28;20420;-70
2022/05/20 02:43:29;;;;;;;13.55;10.15;;;;;;;;;;5011794;28;20046;-70
2022/05/20 02:45:55;;;;;;;22.25;11.90;;;;;;;;;;5012176;28;20046;-70
2022/05/20 02:48:22;;;;;;;16.52;10.73;;;;;;;;;;5010897;28;20046;-70
2022/05/20 02:50:51;;;;;;;14.35;10.30;;;;;;;;;;5011705;28;20046;-69
2022/05/20 02:53:18;;;;;;;12.07;10.20;;;;;;;;;;5011925;28;20065;-70
2022/05/20 02:55:46;;;;;;;16.30;11.45;;;;;;;;;;5011681;28;20508;-70
2022/05/20 03:04:09;;;;;;;19.40;10.65;;;;;;;;;;5011614;28;20409;-70
2022/05/20 03:04:10;;;;;;;17.88;10.75;;;;;;;;;;5011646;28;20104;-70
2022/05/20 03:06:56;;;;;;;16.10;10.05;;;;;;;;;;5011809;28;20045;-69
2022/05/20 03:09:25;;;;;;;13.73;10.52;;;;;;;;;;5011642;28;20053;-69
2022/05/20 03:11:51;;;;;;;17.55;9.93;;;;;;;;;;5011554;28;20390;-70
2022/05/20 03:14:21;;;;;;;15.68;10.55;;;;;;;;;;5011605;28;20054;-70
2022/05/20 03:16:49;;;;;;;14.10;10.23;;;;;;;;;;5011568;28;20049;-70
2022/05/20 03:19:16;;;;;;;14.95;10.00;;;;;;;;;;5012554;28;20573;-70
2022/05/20 03:21:43;;;;;;;14.02;10.73;;;;;;;;;;5011283;28;20065;-70
2022/05/20 03:24:10;;;;;;;20.42;11.13;;;;;;;;;;5011896;28;20049;-70
2022/05/20 03:26:37;;;;;;;14.85;10.50;;;;;;;;;;5012605;28;20420;-70
2022/05/20 03:29:04;;;;;;;13.65;10.70;;;;;;;;;;5015236;28;20485;-69
2022/05/20 03:31:35;;;;;;;17.85;10.43;;;;;;;;;;5015318;28;20493;-70
2022/05/20 03:34:05;;;;;;;12.85;9.73;;;;;;;;;;5015503;28;20049;-70
2022/05/20 03:36:42;;;;;;;15.52;10.13;;;;;;;;;;5014102;28;20050;-70
2022/05/20 03:39:10;;;;;;;12.65;9.77;;;;;;;;;;5015184;28;20053;-69
2022/05/20 03:41:38;;;;;;;12.88;9.77;;;;;;;;;;5015027;28;20054;-69
2022/05/20 03:44:06;;;;;;;16.52;10.95;;;;;;;;;;5015028;28;20402;-70
2022/05/20 03:46:32;;;;;;;19.00;10.48;;;;;;;;;;5015201;28;20056;-70
2022/05/20 03:48:59;;;;;;;16.73;10.75;;;;;;;;;;5014950;28;20054;-70
2022/05/20 03:51:26;;;;;;;12.93;10.10;;;;;;;;;;5014732;28;20050;-71
2022/05/20 03:53:53;;;;;;;14.98;10.50;;;;;;;;;;5014814;28;20052;-69
2022/05/20 03:56:19;;;;;;;14.45;10.60;;;;;;;;;;5014834;28;20046;-69
2022/05/20 03:58:46;;;;;;;15.30;10.55;;;;;;;;;;5015159;28;20057;-69
2022/05/20 04:03:58;;;;;;;15.82;11.00;;;;;;;;;;5014800;28;20463;-69
2022/05/20 04:06:25;;;;;;;14.35;10.00;;;;;;;;;;5014518;28;20054;-69
2022/05/20 04:08:52;;;;;;;12.93;9.73;;;;;;;;;;5014224;28;20050;-70
2022/05/20 04:11:18;;;;;;;12.80;9.45;;;;;;;;;;5014384;28;20061;-70
2022/05/20 04:13:45;;;;;;;12.35;8.80;;;;;;;;;;5014553;28;20046;-69
2022/05/20 04:16:13;;;;;;;14.20;9.07;;;;;;;;;;4997174;28;20057;-69
2022/05/20 04:18:43;;;;;;;12.45;8.98;;;;;;;;;;5014531;28;20054;-69
2022/05/20 04:21:11;;;;;;;12.07;9.00;;;;;;;;;;5014280;28;20050;-69
2022/05/20 04:23:38;;;;;;;13.70;9.70;;;;;;;;;;5014255;28;20049;-69
2022/05/20 04:26:05;;;;;;;16.33;9.68;;;;;;;;;;5014371;28;20485;-69
2022/05/20 04:28:32;;;;;;;16.20;9.75;;;;;;;;;;5014225;28;20053;-69
2022/05/20 04:31:00;;;;;;;12.48;9.85;;;;;;;;;;5014212;28;20057;-68
2022/05/20 04:33:27;;;;;;;13.68;10.30;;;;;;;;;;5014026;28;20078;-69
2022/05/20 04:35:54;;;;;;;15.40;9.85;;;;;;;;;;5012865;28;20061;-69
2022/05/20 04:38:21;;;;;;;17.23;9.80;;;;;;;;;;5013249;28;20057;-68
2022/05/20 04:49:06;;;;;;;11.82;10.32;;;;;;;;;;5013927;28;20077;-70
2022/05/20 04:51:33;;;;;;;15.07;10.55;;;;;;;;;;5013873;28;20428;-70
2022/05/20 04:56:45;;;;;;;14.18;10.82;;;;;;;;;;5013372;28;20509;-70
2022/05/20 04:59:12;;;;;;;17.65;10.68;;;;;;;;;;5013833;28;20068;-70
2022/05/20 05:01:40;;;;;;;13.18;9.88;;;;;;;;;;4996187;28;20136;-69
2022/05/20 05:04:07;;;;;;;15.05;10.77;;;;;;;;;;5013587;28;20053;-65
2022/05/20 05:06:34;;;;;;;13.27;10.43;;;;;;;;;;5013537;28;20056;-66
2022/05/20 05:09:01;;;;;;;11.68;10.40;;;;;;;;;;5013451;28;20046;-66
2022/05/20 05:11:27;;;;;;;12.27;10.52;;;;;;;;;;5013211;28;20053;-66
2022/05/20 05:13:54;;;;;;;16.17;10.13;;;;;;;;;;5013198;28;20501;-66
2022/05/20 05:16:21;;;;;;;17.70;10.55;;;;;;;;;;5013136;28;20050;-66
2022/05/20 05:18:47;;;;;;;11.45;10.25;;;;;;;;;;5013687;28;20097;-66
2022/05/20 05:21:15;;;;;;;12.70;10.13;;;;;;;;;;5013061;28;20065;-67
2022/05/20 05:23:41;;;;;;;15.35;12.82;;;;;;;;;;5013131;28;20053;-71
2022/05/20 05:26:08;;;;;;;13.90;11.63;;;;;;;;;;5013240;28;20050;-71
2022/05/20 05:28:35;;;;;;;14.32;11.77;;;;;;;;;;5013392;28;20054;-70
2022/05/20 05:31:03;;;;;;;12.40;11.13;;;;;;;;;;5013025;28;20401;-70
2022/05/20 05:33:31;;;;;;;17.13;10.60;;;;;;;;;;5012862;28;20139;-72
2022/05/20 05:35:57;;;;;;;12.00;9.73;;;;;;;;;;5013243;28;20485;-71
2022/05/20 05:38:24;;;;;;;14.57;10.13;;;;;;;;;;5012879;28;20053;-70
2022/05/20 05:40:51;;;;;;;15.35;10.38;;;;;;;;;;5012833;28;20050;-69
2022/05/20 05:43:17;;;;;;;14.98;9.32;;;;;;;;;;5013104;28;20401;-69
2022/05/20 05:45:44;;;;;;;11.13;8.27;;;;;;;;;;5012763;28;20053;-70
2022/05/20 05:48:11;;;;;;;11.00;9.63;;;;;;;;;;5012986;28;20057;-70
2022/05/20 05:50:40;;;;;;;18.48;9.70;;;;;;;;;;5012025;28;20064;-70
2022/05/20 05:53:15;;;;;;;9.77;8.63;;;;;;;;;;5012640;28;20046;-71
2022/05/20 05:55:44;;;;;;;9.88;8.55;;;;;;;;;;5011999;28;20046;-70
2022/05/20 05:58:12;;;;;;;11.15;9.07;;;;;;;;;;5011060;28;20072;-69
2022/05/20 06:00:38;;;;;;;14.43;9.52;;;;;;;;;;5012254;28;20489;-69
2022/05/20 06:03:05;;;;;;;11.30;9.27;;;;;;;;;;5011819;28;20104;-69
2022/05/20 06:05:32;;;;;;;10.77;8.65;;;;;;;;;;5012045;28;20084;-69
2022/05/20 06:08:01;;;;;;;11.63;8.82;;;;;;;;;;5010328;28;20049;-69
2022/05/20 06:10:28;;;;;;;12.23;8.45;;;;;;;;;;5011451;28;20051;-69
2022/05/20 06:12:55;;;;;;;8.93;8.05;;;;;;;;;;5011997;28;20401;-70
2022/05/20 06:15:22;;;;;;;9.68;8.35;;;;;;;;;;5012048;28;20057;-69
2022/05/20 06:17:50;;;;;;;8.77;7.97;;;;;;;;;;5011274;28;20073;-70
2022/05/20 06:20:19;;;;;;;9.43;8.52;;;;;;;;;;5011137;28;20497;-69
2022/05/20 06:22:47;;;;;;;10.93;7.70;;;;;;;;;;4992058;28;20500;-70
2022/05/20 06:25:14;;;;;;;8.75;7.32;;;;;;;;;;5011379;28;20137;-69
2022/05/20 06:27:40;;;;;;;10.40;7.07;;;;;;;;;;5011321;28;20050;-69
2022/05/20 06:30:09;;;;;;;12.32;6.90;;;;;;;;;;5010958;28;20398;-69
2022/05/20 06:32:36;;;;;;;10.57;6.97;;;;;;;;;;5009826;28;20046;-70
2022/05/20 06:40:35;;;;;;;9.13;6.88;;;;;;;;;;5009732;28;20405;-69
2022/05/20 06:43:04;;;;;;;8.70;6.63;;;;;;;;;;5010838;28;20065;-70
2022/05/20 06:45:33;;;;;;;10.00;5.93;;;;;;;;;;5011096;28;20046;-69
2022/05/20 06:48:20;;;;;;;8.50;6.40;;;;;;;;;;5004213;28;20170;-69
2022/05/20 06:50:47;;;;;;;7.15;5.65;;;;;;;;;;5011697;28;20116;-69
2022/05/20 06:53:17;;;;;;;6.43;5.47;;;;;;;;;;5011790;28;20096;-69
2022/05/20 06:55:44;;;;;;;7.70;5.78;;;;;;;;;;4996962;28;20046;-69
2022/05/20 06:58:11;;;;;;;5.88;5.10;;;;;;;;;;5011244;28;20068;-69
2022/05/20 07:00:37;;;;;;;9.95;5.90;;;;;;;;;;5011144;28;20064;-68
2022/05/20 07:03:04;;;;;;;11.43;4.90;;;;;;;;;;5015123;28;20116;-67
2022/05/20 07:05:31;;;;;;;7.93;5.20;;;;;;;;;;5015270;28;20173;-71
2022/05/20 07:07:58;;;;;;;11.32;5.15;;;;;;;;;;5015355;28;20060;-71
2022/05/20 07:10:25;;;;;;;10.30;4.75;;;;;;;;;;5015364;28;20050;-71
2022/05/20 07:12:51;;;;;;;5.68;4.55;;;;;;;;;;5015046;28;20053;-72
2022/05/20 07:15:19;;;;;;;7.65;4.88;;;;;;;;;;5015531;28;20077;-70
2022/05/20 07:17:46;;;;;;;7.18;5.00;;;;;;;;;;5015577;28;20493;-70
2022/05/20 07:20:13;;;;;;;6.05;4.22;;;;;;;;;;5015491;28;20056;-66
2022/05/20 07:22:40;;;;;;;6.38;4.15;;;;;;;;;;5012279;28;20419;-69
2022/05/20 07:25:07;;;;;;;6.50;4.50;;;;;;;;;;5015750;28;20397;-69
2022/05/20 07:27:34;;;;;;;7.05;4.25;;;;;;;;;;5014281;28;20512;-70
2022/05/20 07:30:01;;;;;;;7.97;4.15;;;;;;;;;;5015182;28;20488;-70
2022/05/20 07:32:28;;;;;;;6.72;4.40;;;;;;;;;;5014889;28;20046;-70
2022/05/20 07:34:54;;;;;;;9.18;4.10;;;;;;;;;;5015085;28;20424;-69
2022/05/20 07:37:21;;;;;;;6.93;3.90;;;;;;;;;;4997382;28;20543;-69
2022/05/20 07:39:48;;;;;;;6.55;4.30;;;;;;;;;;5015175;28;20056;-70
2022/05/20 07:42:14;;;;;;;4.18;3.50;;;;;;;;;;5014850;28;20060;-69
2022/05/20 07:44:41;;;;;;;7.13;4.55;;;;;;;;;;5014918;28;20559;-69
2022/05/20 07:47:08;;;;;;;7.22;4.07;;;;;;;;;;5015125;28;20053;-69
2022/05/20 07:49:35;;;;;;;6.55;3.50;;;;;;;;;;5014791;28;20057;-69
2022/05/20 07:52:03;;;;;;;3.92;3.55;;;;;;;;;;5014521;28;20049;-69
2022/05/20 07:54:32;;;;;;;6.25;3.72;;;;;;;;;;5013704;28;20046;-69
2022/05/20 07:57:01;;;;;;;6.15;3.85;;;;;;;;;;5003201;28;20493;-69
2022/05/20 07:59:30;;;;;;;5.45;3.85;;;;;;;;;;4996161;28;20046;-69
2022/05/20 08:01:58;;;;;;;7.80;3.58;;;;;;;;;;5001156;28;20053;-69
2022/05/20 08:04:53;;;;;;;7.20;3.85;;;;;;;;;;4997385;28;20050;-69
2022/05/20 08:07:28;;;;;;;5.47;3.42;;;;;;;;;;5000105;28;20046;-69
2022/05/20 08:09:55;;;;;;;4.72;3.60;;;;;;;;;;4981734;28;20506;-69
2022/05/20 08:12:22;;;;;;;8.48;3.63;;;;;;;;;;5013727;28;20077;-69
2022/05/20 08:14:48;;;;;;;4.80;3.35;;;;;;;;;;5013687;28;20053;-69
2022/05/20 08:17:15;;;;;;;7.45;3.28;;;;;;;;;;5014383;28;20069;-69
2022/05/20 08:19:42;;;;;;;3.33;2.75;;;;;;;;;;5014823;28;20049;-69
2022/05/20 08:22:09;;;;;;;6.57;4.30;;;;;;;;;;5013962;28;20054;-69
2022/05/20 08:24:35;;;;;;;11.90;3.33;;;;;;;;;;5014230;28;20054;-70
2022/05/20 08:27:02;;;;;;;9.82;4.32;;;;;;;;;;5013667;28;20054;-69
2022/05/20 08:29:34;;;;;;;4.70;2.92;;;;;;;;;;5014002;28;20164;-67
2022/05/20 08:32:00;;;;;;;4.80;3.45;;;;;;;;;;5013958;28;20049;-68
2022/05/20 08:34:27;;;;;;;9.82;3.50;;;;;;;;;;5014031;28;20050;-73
2022/05/20 08:36:54;;;;;;;6.00;3.30;;;;;;;;;;5000309;28;20050;-65
2022/05/20 08:39:21;;;;;;;6.80;3.30;;;;;;;;;;5013586;28;20412;-74
2022/05/20 08:41:50;;;;;;;5.15;3.90;;;;;;;;;;5022266;28;20056;-72
2022/05/20 08:44:20;;;;;;;7.22;3.05;;;;;;;;;;5018649;28;20398;-77
2022/05/20 08:46:48;;;;;;;6.20;3.15;;;;;;;;;;5000782;28;20074;-77
2022/05/20 08:49:18;;;;;;;5.00;3.08;;;;;;;;;;4970745;28;20076;-66
2022/05/20 08:51:51;;;;;;;3.22;2.90;;;;;;;;;;5020362;28;20045;-66
2022/05/20 08:54:18;;;;;;;4.18;3.30;;;;;;;;;;5019630;28;20049;-65
2022/05/20 08:56:45;;;;;;;7.10;3.50;;;;;;;;;;5020105;28;20072;-64
2022/05/20 08:59:14;;;;;;;3.33;3.00;;;;;;;;;;5020286;28;20145;-66
2022/05/20 09:01:44;;;;;;;4.88;2.70;;;;;;;;;;5002944;28;20053;-73
2022/05/20 09:04:13;;;;;;;7.15;3.40;;;;;;;;;;5016004;28;20046;-75
2022/05/20 09:06:55;;;;;;;5.88;3.30;;;;;;;;;;5019410;28;20049;-73
2022/05/20 09:09:22;;;;;;;8.13;3.10;;;;;;;;;;5020276;28;20059;-70
2022/05/20 09:11:54;;;;;;;5.97;3.30;;;;;;;;;;5020728;28;20045;-74
2022/05/20 09:17:23;;;;;;;4.30;3.00;;;;;;;;;;5020241;28;20064;-72
2022/05/20 09:20:07;;;;;;;5.93;3.00;;;;;;;;;;5019381;28;20100;-69
2022/05/20 09:22:36;;;;;;;4.57;3.20;;;;;;;;;;5018086;28;20057;-73
2022/05/20 09:25:12;;;;;;;8.13;3.28;;;;;;;;;;5022092;28;20547;-66
2022/05/20 09:27:39;;;;;;;3.67;2.78;;;;;;;;;;5018102;28;20057;-65
2022/05/20 09:30:12;;;;;;;4.07;2.90;;;;;;;;;;5017503;28;20524;-68
2022/05/20 09:32:59;;;;;;;3.65;2.88;;;;;;;;;;5023704;28;20061;-68
2022/05/20 09:35:31;;;;;;;4.65;2.75;;;;;;;;;;5003960;28;20046;-65
2022/05/20 09:37:57;;;;;;;6.75;3.45;;;;;;;;;;5021308;28;20046;-66
2022/05/20 09:40:34;;;;;;;4.07;2.95;;;;;;;;;;5020699;28;20053;-64
2022/05/20 09:43:26;;;;;;;;;;;;;;;;;;5019843;28;20045;-63
2022/05/20 09:45:53;;;;;;;4.13;2.58;;;;;;;;;;5016319;28;19922;-64
2022/05/20 09:48:39;;;;;;;5.72;3.20;;;;;;;;;;5021716;28;20500;-65
2022/05/20 09:51:15;;;;;;;7.50;3.60;;;;;;;;;;5020790;28;20579;-64
2022/05/20 09:53:44;;;;;;;7.50;3.10;;;;;;;;;;5017285;28;20072;-64
2022/05/20 09:56:25;;;;;;;4.93;3.20;;;;;;;;;;5019230;28;20045;-64
2022/05/20 09:59:13;;;;;;;5.55;3.22;;;;;;;;;;5052920;22;20078;-67
2022/05/20 10:01:42;;;;;;;8.13;3.03;;;;;;;;;;5039612;28;20041;-67
2022/05/20 10:04:24;;;;;;;5.80;3.22;;;;;;;;;;5018207;28;20045;-66
2022/05/20 10:06:53;;;;;;;4.15;2.78;;;;;;;;;;5041753;28;20044;-65
2022/05/20 10:09:45;;;;;;;9.43;3.25;;;;;;;;;;5010205;28;20515;-64
2022/05/20 10:12:24;;;;;;;4.83;3.10;;;;;;;;;;5018316;28;20046;-74
2022/05/20 10:15:12;;;;;;;7.53;3.10;;;;;;;;;;5003447;28;20073;-70
2022/05/20 10:17:46;;;;;;;3.80;2.78;;;;;;;;;;5019534;28;20088;-71
2022/05/20 10:20:33;;;;;;;4.90;2.83;;;;;;;;;;5028422;22;20096;-69
2022/05/20 10:23:23;;;;;;;3.63;3.17;;;;;;;;;;5018602;28;20128;-66
2022/05/20 10:25:51;;;;;;;4.38;2.70;;;;;;;;;;5020580;28;20049;-64
2022/05/20 10:34:14;;;;;;;7.18;3.17;;;;;;;;;;5019600;28;20053;-66
2022/05/20 10:37:03;;;;;;;5.43;3.17;;;;;;;;;;5019120;28;20439;-65
2022/05/20 10:39:36;;;;;;;4.90;2.90;;;;;;;;;;5016268;28;20049;-65
2022/05/20 10:42:17;;;;;;;4.85;2.95;;;;;;;;;;5020930;28;20056;-65
2022/05/20 10:50:34;;;;;;;3.85;2.72;;;;;;;;;;5023505;28;20508;-66
2022/05/20 10:53:15;;;;;;;4.57;3.42;;;;;;;;;;5022130;28;20042;-65
2022/05/20 10:56:19;;;;;;;5.50;2.30;;;;;;;;;;5022189;28;20054;-65
2022/05/20 10:59:07;;;;;;;6.18;2.47;;;;;;;;;;5022103;28;20042;-66
2022/05/20 11:01:41;;;;;;;8.23;3.00;;;;;;;;;;5035535;28;20050;-65
2022/05/20 11:04:23;;;;;;;5.55;3.20;;;;;;;;;;5012790;28;20042;-65
2022/05/20 11:07:12;;;;;;;5.95;3.38;;;;;;;;;;5023643;28;20500;-65
2022/05/20 11:09:48;;;;;;;7.32;2.88;;;;;;;;;;5017562;28;20042;-65
2022/05/20 11:12:44;;;;;;;4.32;2.47;;;;;;;;;;5021930;28;20046;-65
2022/05/20 11:15:22;;;;;;;8.57;2.88;;;;;;;;;;5009819;28;20041;-65
2022/05/20 11:17:56;;;;;;;6.65;2.70;;;;;;;;;;5020250;28;20068;-66
2022/05/20 11:20:23;;;;;;;4.72;3.15;;;;;;;;;;5019445;28;20084;-67
2022/05/20 11:22:59;;;;;;;6.18;2.58;;;;;;;;;;5019746;28;20049;-66
2022/05/20 11:25:50;;;;;;;6.88;3.42;;;;;;;;;;5018132;28;20045;-67
2022/05/20 11:28:39;;;;;;;5.43;2.42;;;;;;;;;;5034777;28;20096;-65
2022/05/20 11:31:15;;;;;;;5.13;2.83;;;;;;;;;;5020409;28;20500;-64
2022/05/20 11:33:46;;;;;;;4.82;2.70;;;;;;;;;;5017010;28;20412;-67
2022/05/20 11:36:27;;;;;;;5.57;2.78;;;;;;;;;;5015920;28;20054;-66
2022/05/20 11:39:15;;;;;;;5.30;2.63;;;;;;;;;;5011621;28;20058;-66
2022/05/20 11:42:04;;;;;;;4.70;2.75;;;;;;;;;;5022355;28;20137;-66
2022/05/20 11:44:39;;;;;;;7.03;2.50;;;;;;;;;;5018548;28;20049;-66
2022/05/20 11:47:25;;;;;;;4.65;2.42;;;;;;;;;;5036329;28;20099;-66
2022/05/20 11:50:02;;;;;;;3.50;2.63;;;;;;;;;;5026752;28;20049;-66
2022/05/20 11:52:38;;;;;;;6.28;2.85;;;;;;;;;;5022733;28;20053;-65
2022/05/20 11:55:10;;;;;;;3.67;2.50;;;;;;;;;;5024192;28;20053;-67
2022/05/20 11:57:43;;;;;;;5.38;2.55;;;;;;;;;;5038133;28;20050;-67
2022/05/20 12:00:19;;;;;;;5.55;2.80;;;;;;;;;;5017448;28;20053;-67
2022/05/20 12:02:56;;;;;;;7.03;2.70;;;;;;;;;;5020274;28;20041;-66
2022/05/20 12:05:25;;;;;;;4.47;2.67;;;;;;;;;;5020462;28;20045;-66
2022/05/20 12:07:52;;;;;;;6.72;2.42;;;;;;;;;;5038376;28;20176;-65
2022/05/20 12:10:32;;;;;;;6.38;2.50;;;;;;;;;;5022439;28;20053;-66
2022/05/20 12:13:19;;;;;;;5.43;3.38;;;;;;;;;;5024395;28;20416;-65
2022/05/20 12:16:13;;;;;;;3.65;2.58;;;;;;;;;;5037811;28;20045;-67
2022/05/20 12:24:39;;;;;;;4.68;3.10;;;;;;;;;;5024062;28;20075;-67
2022/05/20 12:27:11;;;;;;;5.22;3.45;;;;;;;;;;5021934;28;20045;-66
2022/05/20 12:29:38;;;;;;;6.28;3.47;;;;;;;;;;5022336;28;20049;-67
2022/05/20 12:32:16;;;;;;;4.38;3.42;;;;;;;;;;5014508;28;20053;-67
2022/05/20 12:34:45;;;;;;;5.10;3.38;;;;;;;;;;5015623;28;20129;-66
2022/05/20 12:37:42;;;;;;;6.43;2.90;;;;;;;;;;5023356;28;20199;-66
2022/05/20 12:40:16;;;;;;;5.88;3.40;;;;;;;;;;5021641;28;20076;-67
2022/05/20 12:43:08;;;;;;;9.02;3.65;;;;;;;;;;5013789;28;20057;-67
2022/05/20 12:45:48;;;;;;;8.57;3.47;;;;;;;;;;5038464;28;20496;-69
2022/05/20 12:48:17;;;;;;;7.20;2.90;;;;;;;;;;5021262;28;20041;-68
2022/05/20 12:50:43;;;;;;;7.82;3.15;;;;;;;;;;5021911;28;20061;-67
2022/05/20 12:53:11;;;;;;;6.00;2.55;;;;;;;;;;5023016;28;20057;-69
2022/05/20 12:55:43;;;;;;;6.47;2.50;;;;;;;;;;5022582;28;20042;-68
2022/05/20 12:58:15;;;;;;;5.10;2.75;;;;;;;;;;5024637;28;20072;-68
2022/05/20 13:00:47;;;;;;;;;;;;;;;;;;5035614;28;20591;-68
2022/05/20 13:03:22;;;;;;;5.93;2.90;;;;;;;;;;5024407;28;19951;-68
2022/05/20 13:05:59;;;;;;;5.63;2.38;;;;;;;;;;5039686;28;20049;-68
2022/05/20 13:08:30;;;;;;;5.88;2.22;;;;;;;;;;5020732;28;20046;-68
2022/05/20 13:11:10;;;;;;;;;;;;;;;;;;5020480;28;20077;-68
2022/05/20 13:13:37;;;;;;;4.80;2.53;;;;;;;;;;5024163;28;19921;-69
2022/05/20 13:16:06;;;;;;;4.88;2.17;;;;;;;;;;5003230;28;20046;-68
2022/05/20 13:18:35;;;;;;;7.50;2.35;;;;;;;;;;5017699;28;20049;-69
2022/05/20 13:21:15;;;;;;;3.92;2.28;;;;;;;;;;5003310;28;20053;-68
2022/05/20 13:23:50;;;;;;;5.97;2.40;;;;;;;;;;5021539;28;20136;-69
2022/05/20 13:26:25;;;;;;;5.18;2.88;;;;;;;;;;5018015;28;20092;-68
2022/05/20 13:29:09;;;;;;;3.90;2.80;;;;;;;;;;5019753;28;20053;-69
2022/05/20 13:31:36;;;;;;;5.15;2.70;;;;;;;;;;5022182;28;20056;-69
2022/05/20 13:34:03;;;;;;;3.80;2.22;;;;;;;;;;5015125;28;20472;-69
2022/05/20 13:36:57;;;;;;;5.72;2.22;;;;;;;;;;5031594;28;20042;-68
2022/05/20 13:39:23;;;;;;;6.25;2.38;;;;;;;;;;5015356;28;20050;-68
2022/05/20 13:41:50;;;;;;;5.57;2.42;;;;;;;;;;5022993;28;20529;-67
2022/05/20 13:44:22;;;;;;;3.97;2.10;;;;;;;;;;5021005;28;20170;-68
2022/05/20 13:49:42;;;;;;;6.00;2.20;;;;;;;;;;5020129;28;20486;-68
2022/05/20 13:52:13;;;;;;;4.47;2.00;;;;;;;;;;5022473;28;20045;-68
2022/05/20 13:54:46;;;;;;;5.90;2.72;;;;;;;;;;5021133;28;20577;-68
2022/05/20 13:57:15;;;;;;;5.88;2.95;;;;;;;;;;5013448;28;20156;-67
2022/05/20 13:59:42;;;;;;;10.57;4.78;;;;;;;;;;5002513;28;20077;-68
2022/05/20 14:02:08;;;;;;;49.17;28.63;;;;;;;;;;5024385;28;20045;-66
2022/05/20 14:04:41;;;;;;;11.13;4.50;;;;;;;;;;5022749;28;20046;-68
2022/05/20 14:07:26;;;;;;;8.43;2.35;;;;;;;;;;5027626;28;20332;-67
2022/05/20 14:10:06;;;;;;;6.15;2.25;;;;;;;;;;5021403;28;20049;-66
2022/05/20 14:12:33;;;;;;;5.15;2.10;;;;;;;;;;5022358;28;20049;-66
2022/05/20 14:15:12;;;;;;;6.38;2.90;;;;;;;;;;5018808;28;20063;-66
2022/05/20 14:17:42;;;;;;;7.95;2.28;;;;;;;;;;5022730;28;20049;-66
2022/05/20 14:20:12;;;;;;;5.47;2.72;;;;;;;;;;5020794;28;20084;-66
2022/05/20 14:22:40;;;;;;;3.78;2.60;;;;;;;;;;5020447;28;20041;-67
2022/05/20 14:25:19;;;;;;;8.57;2.30;;;;;;;;;;5016507;28;20487;-64
2022/05/20 14:27:48;;;;;;;10.23;3.20;;;;;;;;;;5019773;28;20081;-66
2022/05/20 14:30:31;;;;;;;5.63;2.60;;;;;;;;;;5019060;28;20081;-76
2022/05/20 14:33:03;;;;;;;5.00;2.13;;;;;;;;;;5029202;28;20046;-79
2022/05/20 14:35:40;;;;;;;3.72;2.22;;;;;;;;;;5027806;28;20077;-79
2022/05/20 14:38:11;;;;;;;7.10;2.42;;;;;;;;;;5028402;28;20133;-78
2022/05/20 14:40:37;;;;;;;6.67;2.00;;;;;;;;;;5021210;28;20056;-68
2022/05/20 14:43:06;;;;;;;6.28;2.60;;;;;;;;;;5020935;28;20057;-70
2022/05/20 14:45:38;;;;;;;5.75;3.67;;;;;;;;;;5016988;28;20049;-66
2022/05/20 14:48:09;;;;;;;6.20;2.97;;;;;;;;;;5002737;28;20092;-72
2022/05/20 14:50:36;;;;;;;7.40;3.43;;;;;;;;;;5032102;28;20042;-72
2022/05/20 14:53:18;;;;;;;5.43;3.08;;;;;;;;;;5022295;28;20050;-71
2022/05/20 14:55:48;;;;;;;5.53;3.22;;;;;;;;;;5021464;28;20056;-66
2022/05/20 14:58:15;;;;;;;10.45;3.10;;;;;;;;;;5018380;28;20050;-66
2022/05/20 15:00:51;;;;;;;6.72;3.33;;;;;;;;;;5023342;28;20042;-66
2022/05/20 15:03:18;;;;;;;7.22;3.33;;;;;;;;;;5023289;28;20119;-71
2022/05/20 15:05:47;;;;;;;8.18;3.20;;;;;;;;;;5018398;28;20053;-71
2022/05/20 15:08:14;;;;;;;5.68;3.10;;;;;;;;;;5036452;28;20053;-65
2022/05/20 15:10:41;;;;;;;5.38;3.15;;;;;;;;;;5010725;28;20531;-70
2022/05/20 15:13:08;;;;;;;5.65;2.95;;;;;;;;;;5013940;28;20049;-72
2022/05/20 15:15:36;;;;;;;7.57;3.30;;;;;;;;;;5017502;28;20052;-70
2022/05/20 15:18:04;;;;;;;4.65;3.20;;;;;;;;;;5018571;28;20108;-70
2022/05/20 15:20:44;;;;;;;7.55;3.53;;;;;;;;;;5036379;28;20107;-71
2022/05/20 15:23:22;;;;;;;7.93;4.00;;;;;;;;;;5019609;28;20449;-70
2022/05/20 15:25:51;;;;;;;10.60;3.90;;;;;;;;;;5036311;28;20124;-68
2022/05/20 15:36:39;;;;;;;10.57;4.43;;;;;;;;;;5024208;28;20108;-66
2022/05/20 15:39:40;;;;;;;4.18;2.78;;;;;;;;;;5037599;28;20264;-70
2022/05/20 15:42:08;;;;;;;5.88;3.42;;;;;;;;;;4984546;28;20047;-71
2022/05/20 15:44:35;;;;;;;8.55;3.50;;;;;;;;;;5003400;28;20474;-71
2022/05/20 15:47:02;;;;;;;10.20;2.83;;;;;;;;;;5003503;28;20049;-73
2022/05/20 15:49:29;;;;;;;4.43;3.08;;;;;;;;;;5021250;28;20096;-70
2022/05/20 15:51:56;;;;;;;5.82;2.63;;;;;;;;;;5017808;28;20049;-69
2022/05/20 15:54:25;;;;;;;8.73;3.22;;;;;;;;;;5022273;28;20409;-70
2022/05/20 15:56:54;;;;;;;6.00;3.47;;;;;;;;;;5024593;28;20452;-73